createdAt,value
2017-11-26T00:00:16.478Z,3.46
2017-11-26T00:01:16.462Z,3.46
2017-11-26T00:02:16.417Z,3.45
2017-11-26T00:03:16.391Z,3.46
2017-11-26T00:04:16.361Z,3.46
2017-11-26T00:05:16.331Z,3.42
2017-11-26T00:06:16.302Z,3.50
2017-11-26T00:07:16.261Z,3.42
2017-11-26T00:08:16.237Z,3.46
2017-11-26T00:09:16.201Z,3.35
2017-11-26T00:10:16.174Z,3.42
2017-11-26T00:11:16.143Z,3.44
2017-11-26T00:12:16.111Z,3.42
2017-11-26T00:13:16.081Z,3.41
2017-11-26T00:14:16.297Z,3.50
2017-11-26T00:15:16.018Z,3.34
2017-11-26T00:16:15.991Z,3.49
2017-11-26T00:17:15.972Z,3.50
2017-11-26T00:18:15.925Z,3.44
2017-11-26T00:19:15.898Z,3.45
2017-11-26T00:20:15.863Z,3.45
2017-11-26T00:21:15.835Z,3.34
2017-11-26T00:22:15.802Z,3.35
2017-11-26T00:23:15.764Z,3.50
2017-11-26T00:24:15.739Z,3.39
2017-11-26T00:25:15.701Z,3.37
2017-11-26T00:26:15.671Z,3.31
2017-11-26T00:27:15.648Z,3.37
2017-11-26T00:28:15.614Z,3.35
2017-11-26T00:29:15.583Z,3.31
2017-11-26T00:30:15.552Z,3.26
2017-11-26T00:31:15.513Z,3.26
2017-11-26T00:32:15.489Z,3.31
2017-11-26T00:33:15.460Z,3.33
2017-11-26T00:34:15.422Z,3.30
2017-11-26T00:35:15.396Z,3.31
2017-11-26T00:36:15.373Z,3.30
2017-11-26T00:37:15.338Z,3.33
2017-11-26T00:38:15.299Z,3.31
2017-11-26T00:39:15.280Z,3.31
2017-11-26T00:40:15.236Z,3.28
2017-11-26T00:41:15.198Z,3.39
2017-11-26T00:42:15.170Z,3.44
2017-11-26T00:43:15.436Z,3.42
2017-11-26T00:44:15.109Z,3.41
2017-11-26T00:45:15.081Z,3.45
2017-11-26T00:46:15.049Z,3.42
2017-11-26T00:47:15.010Z,3.50
2017-11-26T00:48:15.045Z,3.45
2017-11-26T00:49:14.950Z,3.42
2017-11-26T00:50:14.917Z,3.33
2017-11-26T00:51:14.885Z,3.45
2017-11-26T00:52:14.855Z,3.50
2017-11-26T00:53:14.822Z,3.45
2017-11-26T00:54:14.801Z,3.46
2017-11-26T00:55:14.768Z,3.39
2017-11-26T00:56:14.737Z,3.37
2017-11-26T00:57:14.696Z,3.39
2017-11-26T00:58:14.670Z,3.34
2017-11-26T00:59:14.647Z,3.46
2017-11-26T01:00:14.615Z,3.44
2017-11-26T01:01:14.576Z,3.37
2017-11-26T01:02:14.538Z,3.33
2017-11-26T01:03:14.513Z,3.31
2017-11-26T01:04:14.478Z,3.28
2017-11-26T01:05:14.448Z,3.31
2017-11-26T01:06:14.674Z,3.31
2017-11-26T01:07:14.384Z,3.30
2017-11-26T01:08:14.352Z,3.35
2017-11-26T01:09:14.326Z,3.33
2017-11-26T01:10:14.293Z,3.35
2017-11-26T01:11:14.265Z,3.34
2017-11-26T01:12:14.230Z,3.30
2017-11-26T01:13:14.199Z,3.25
2017-11-26T01:14:14.170Z,3.34
2017-11-26T01:15:14.142Z,3.30
2017-11-26T01:16:14.109Z,3.31
2017-11-26T01:17:14.070Z,3.26
2017-11-26T01:18:14.349Z,3.26
2017-11-26T01:19:14.014Z,3.33
2017-11-26T01:20:13.976Z,3.26
2017-11-26T01:21:13.957Z,3.28
2017-11-26T01:22:13.917Z,3.17
2017-11-26T01:23:13.889Z,3.26
2017-11-26T01:24:13.855Z,3.20
2017-11-26T01:25:13.822Z,3.34
2017-11-26T01:26:13.792Z,3.25
2017-11-26T01:27:13.758Z,3.30
2017-11-26T01:28:13.731Z,3.26
2017-11-26T01:29:13.703Z,3.28
2017-11-26T01:30:13.920Z,3.25
2017-11-26T01:31:13.630Z,3.15
2017-11-26T01:32:13.605Z,3.15
2017-11-26T01:33:13.571Z,3.20
2017-11-26T01:34:13.539Z,3.20
2017-11-26T01:35:13.513Z,3.15
2017-11-26T01:36:13.730Z,3.17
2017-11-26T01:37:13.442Z,3.17
2017-11-26T01:38:13.406Z,3.16
2017-11-26T01:39:13.386Z,3.16
2017-11-26T01:40:13.358Z,3.13
2017-11-26T01:41:13.325Z,3.08
2017-11-26T01:42:13.281Z,3.12
2017-11-26T01:43:13.251Z,3.16
2017-11-26T01:44:13.223Z,3.12
2017-11-26T01:45:13.193Z,3.16
2017-11-26T01:46:13.156Z,3.12
2017-11-26T01:47:13.129Z,3.20
2017-11-26T01:48:13.091Z,3.08
2017-11-26T01:49:13.059Z,3.13
2017-11-26T01:50:13.034Z,3.17
2017-11-26T01:51:13.004Z,3.15
2017-11-26T01:52:12.970Z,3.12
2017-11-26T01:53:12.935Z,3.10
2017-11-26T01:54:13.157Z,3.08
2017-11-26T01:55:12.880Z,2.99
2017-11-26T01:56:12.840Z,3.12
2017-11-26T01:57:12.815Z,3.13
2017-11-26T01:58:12.781Z,3.08
2017-11-26T01:59:12.757Z,3.12
2017-11-26T02:00:12.716Z,3.01
2017-11-26T02:01:12.679Z,3.04
2017-11-26T02:02:12.650Z,3.01
2017-11-26T02:03:12.620Z,2.99
2017-11-26T02:04:12.608Z,2.99
2017-11-26T02:05:12.862Z,3.12
2017-11-26T02:06:12.532Z,3.15
2017-11-26T02:07:12.493Z,3.19
2017-11-26T02:08:12.461Z,3.02
2017-11-26T02:09:12.437Z,3.13
2017-11-26T02:10:12.393Z,3.12
2017-11-26T02:11:12.673Z,3.10
2017-11-26T02:12:12.331Z,3.10
2017-11-26T02:13:12.305Z,3.08
2017-11-26T02:14:12.276Z,3.13
2017-11-26T02:15:12.248Z,3.02
2017-11-26T02:16:12.211Z,3.07
2017-11-26T02:17:12.178Z,3.10
2017-11-26T02:18:12.144Z,3.16
2017-11-26T02:19:12.107Z,3.15
2017-11-26T02:20:12.090Z,3.13
2017-11-26T02:21:12.048Z,2.99
2017-11-26T02:22:12.027Z,3.12
2017-11-26T02:23:11.991Z,3.10
2017-11-26T02:24:11.950Z,3.12
2017-11-26T02:25:11.927Z,3.08
2017-11-26T02:26:11.889Z,3.02
2017-11-26T02:27:11.859Z,3.10
2017-11-26T02:28:12.181Z,3.05
2017-11-26T02:29:11.792Z,3.16
2017-11-26T02:30:11.767Z,2.99
2017-11-26T02:31:11.739Z,3.08
2017-11-26T02:32:11.705Z,3.16
2017-11-26T02:33:11.675Z,3.04
2017-11-26T02:34:11.940Z,3.01
2017-11-26T02:35:11.603Z,3.01
2017-11-26T02:36:11.579Z,2.92
2017-11-26T02:37:11.538Z,3.05
2017-11-26T02:38:11.516Z,2.98
2017-11-26T02:39:11.477Z,2.98
2017-11-26T02:40:11.699Z,3.01
2017-11-26T02:41:11.423Z,3.05
2017-11-26T02:42:11.383Z,3.10
2017-11-26T02:43:11.362Z,2.98
2017-11-26T02:44:11.320Z,3.01
2017-11-26T02:45:11.289Z,3.02
2017-11-26T02:46:11.267Z,2.94
2017-11-26T02:47:11.224Z,3.01
2017-11-26T02:48:11.194Z,3.01
2017-11-26T02:49:11.158Z,2.95
2017-11-26T02:50:11.125Z,2.95
2017-11-26T02:51:11.093Z,2.99
2017-11-26T02:52:11.074Z,3.07
2017-11-26T02:53:11.038Z,2.94
2017-11-26T02:54:11.009Z,2.98
2017-11-26T02:55:10.974Z,2.95
2017-11-26T02:56:10.942Z,2.95
2017-11-26T02:57:10.917Z,2.97
2017-11-26T02:58:11.223Z,3.01
2017-11-26T02:59:10.841Z,2.87
2017-11-26T03:00:10.811Z,2.95
2017-11-26T03:01:10.778Z,3.01
2017-11-26T03:02:10.752Z,2.97
2017-11-26T03:03:10.715Z,2.95
2017-11-26T03:04:11.003Z,2.90
2017-11-26T03:05:10.659Z,2.97
2017-11-26T03:06:10.623Z,2.99
2017-11-26T03:07:10.593Z,3.04
2017-11-26T03:08:10.565Z,2.92
2017-11-26T03:09:10.535Z,2.92
2017-11-26T03:10:10.494Z,2.87
2017-11-26T03:11:10.474Z,2.90
2017-11-26T03:12:10.436Z,2.94
2017-11-26T03:13:10.412Z,2.97
2017-11-26T03:14:10.376Z,2.98
2017-11-26T03:15:10.343Z,2.95
2017-11-26T03:16:10.658Z,2.94
2017-11-26T03:17:10.281Z,2.94
2017-11-26T03:18:10.239Z,2.97
2017-11-26T03:19:10.218Z,2.98
2017-11-26T03:20:10.189Z,2.94
2017-11-26T03:21:10.152Z,2.95
2017-11-26T03:22:10.836Z,2.92
2017-11-26T03:23:10.085Z,2.99
2017-11-26T03:24:10.064Z,2.87
2017-11-26T03:25:10.031Z,2.94
2017-11-26T03:26:09.987Z,2.94
2017-11-26T03:27:09.955Z,3.01
2017-11-26T03:28:09.932Z,2.90
2017-11-26T03:29:09.899Z,2.97
2017-11-26T03:30:09.873Z,2.90
2017-11-26T03:31:09.831Z,2.94
2017-11-26T03:32:09.797Z,2.94
2017-11-26T03:33:10.075Z,2.99
2017-11-26T03:34:09.742Z,2.94
2017-11-26T03:35:09.703Z,2.98
2017-11-26T03:36:09.678Z,3.04
2017-11-26T03:37:09.645Z,2.90
2017-11-26T03:38:09.617Z,2.92
2017-11-26T03:39:09.578Z,2.95
2017-11-26T03:40:09.556Z,2.92
2017-11-26T03:41:09.521Z,2.92
2017-11-26T03:42:09.489Z,2.95
2017-11-26T03:43:09.449Z,2.97
2017-11-26T03:44:09.425Z,2.98
2017-11-26T03:45:09.642Z,2.94
2017-11-26T03:46:09.362Z,3.02
2017-11-26T03:47:09.323Z,2.95
2017-11-26T03:48:09.293Z,2.94
2017-11-26T03:49:09.262Z,2.86
2017-11-26T03:50:09.238Z,2.95
2017-11-26T03:51:09.197Z,2.90
2017-11-26T03:52:09.178Z,2.95
2017-11-26T03:53:09.135Z,2.98
2017-11-26T03:54:09.109Z,2.95
2017-11-26T03:55:09.080Z,2.99
2017-11-26T03:56:09.890Z,2.99
2017-11-26T03:57:09.017Z,2.95
2017-11-26T03:58:08.979Z,2.99
2017-11-26T03:59:08.973Z,2.95
2017-11-26T04:00:08.919Z,2.84
2017-11-26T04:01:08.882Z,2.97
2017-11-26T04:02:08.858Z,2.89
2017-11-26T04:03:08.820Z,2.97
2017-11-26T04:04:08.785Z,2.92
2017-11-26T04:05:08.759Z,2.94
2017-11-26T04:06:08.724Z,2.94
2017-11-26T04:07:08.695Z,2.90
2017-11-26T04:08:08.967Z,2.90
2017-11-26T04:09:08.629Z,2.92
2017-11-26T04:10:08.600Z,2.92
2017-11-26T04:11:08.565Z,2.86
2017-11-26T04:12:08.542Z,2.92
2017-11-26T04:13:08.518Z,2.94
2017-11-26T04:14:08.729Z,2.94
2017-11-26T04:15:08.441Z,2.98
2017-11-26T04:16:08.422Z,2.90
2017-11-26T04:17:08.375Z,2.92
2017-11-26T04:18:08.356Z,2.92
2017-11-26T04:19:08.324Z,2.98
2017-11-26T04:20:08.289Z,2.97
2017-11-26T04:21:08.258Z,2.95
2017-11-26T04:22:08.219Z,2.90
2017-11-26T04:23:08.181Z,3.04
2017-11-26T04:24:08.159Z,2.90
2017-11-26T04:25:08.384Z,2.90
2017-11-26T04:26:08.091Z,2.90
2017-11-26T04:27:08.065Z,2.92
2017-11-26T04:28:08.024Z,2.94
2017-11-26T04:29:08.003Z,2.90
2017-11-26T04:30:07.967Z,2.97
2017-11-26T04:31:08.188Z,2.92
2017-11-26T04:32:07.905Z,2.90
2017-11-26T04:33:07.877Z,2.89
2017-11-26T04:34:07.837Z,2.95
2017-11-26T04:35:07.808Z,2.84
2017-11-26T04:36:07.775Z,2.92
2017-11-26T04:37:08.044Z,2.92
2017-11-26T04:38:07.721Z,2.89
2017-11-26T04:39:07.684Z,2.94
2017-11-26T04:40:07.649Z,2.94
2017-11-26T04:41:07.609Z,2.92
2017-11-26T04:42:07.585Z,2.99
2017-11-26T04:43:07.559Z,2.94
2017-11-26T04:44:07.524Z,2.95
2017-11-26T04:45:07.489Z,3.12
2017-11-26T04:46:07.454Z,3.01
2017-11-26T04:47:07.422Z,2.97
2017-11-26T04:48:07.400Z,3.01
2017-11-26T04:49:07.364Z,2.87
2017-11-26T04:50:07.331Z,2.97
2017-11-26T04:51:07.294Z,3.01
2017-11-26T04:52:07.261Z,3.10
2017-11-26T04:53:07.242Z,2.98
2017-11-26T04:54:07.205Z,3.01
2017-11-26T04:55:07.165Z,2.99
2017-11-26T04:56:07.145Z,3.07
2017-11-26T04:57:07.106Z,3.17
2017-11-26T04:58:07.081Z,3.13
2017-11-26T04:59:07.042Z,3.10
2017-11-26T05:00:07.011Z,3.15
2017-11-26T05:01:07.227Z,3.17
2017-11-26T05:02:06.947Z,3.17
2017-11-26T05:03:06.921Z,3.22
2017-11-26T05:04:06.882Z,3.16
2017-11-26T05:05:06.859Z,3.17
2017-11-26T05:06:06.820Z,3.20
2017-11-26T05:07:07.044Z,3.15
2017-11-26T05:08:06.763Z,3.28
2017-11-26T05:09:06.735Z,3.34
2017-11-26T05:10:06.701Z,3.28
2017-11-26T05:11:06.662Z,3.30
2017-11-26T05:12:06.633Z,3.35
2017-11-26T05:13:06.906Z,3.28
2017-11-26T05:14:06.573Z,3.25
2017-11-26T05:15:06.548Z,3.33
2017-11-26T05:16:06.510Z,3.33
2017-11-26T05:17:06.485Z,3.30
2017-11-26T05:18:06.451Z,3.33
2017-11-26T05:19:06.662Z,3.30
2017-11-26T05:20:06.385Z,3.37
2017-11-26T05:21:06.358Z,3.41
2017-11-26T05:22:06.322Z,3.44
2017-11-26T05:23:06.295Z,3.35
2017-11-26T05:24:06.256Z,3.45
2017-11-26T05:25:06.232Z,3.50
2017-11-26T05:26:06.193Z,3.42
2017-11-26T05:27:06.163Z,3.46
2017-11-26T05:28:06.147Z,3.42
2017-11-26T05:29:06.104Z,3.59
2017-11-26T05:30:06.078Z,3.44
2017-11-26T05:31:06.041Z,3.49
2017-11-26T05:32:06.008Z,3.62
2017-11-26T05:33:05.986Z,3.57
2017-11-26T05:34:05.953Z,3.41
2017-11-26T05:35:05.928Z,3.54
2017-11-26T05:36:05.893Z,3.62
2017-11-26T05:37:05.864Z,3.57
2017-11-26T05:38:05.829Z,3.53
2017-11-26T05:39:05.807Z,3.42
2017-11-26T05:40:05.762Z,3.54
2017-11-26T05:41:05.735Z,3.54
2017-11-26T05:42:05.699Z,3.62
2017-11-26T05:43:05.665Z,3.62
2017-11-26T05:44:05.642Z,3.59
2017-11-26T05:45:05.611Z,3.53
2017-11-26T05:46:05.573Z,3.59
2017-11-26T05:47:05.548Z,3.57
2017-11-26T05:48:05.523Z,3.54
2017-11-26T05:49:05.482Z,3.60
2017-11-26T05:50:05.453Z,3.59
2017-11-26T05:51:05.426Z,3.57
2017-11-26T05:52:05.394Z,3.59
2017-11-26T05:53:05.372Z,3.67
2017-11-26T05:54:05.625Z,3.62
2017-11-26T05:55:05.310Z,3.54
2017-11-26T05:56:05.268Z,3.56
2017-11-26T05:57:05.245Z,3.68
2017-11-26T05:58:05.206Z,3.54
2017-11-26T05:59:05.173Z,3.64
2017-11-26T06:00:05.395Z,3.63
2017-11-26T06:01:05.120Z,3.57
2017-11-26T06:02:05.075Z,3.62
2017-11-26T06:03:05.052Z,3.68
2017-11-26T06:04:05.021Z,3.63
2017-11-26T06:05:04.999Z,3.67
2017-11-26T06:06:04.952Z,3.75
2017-11-26T06:07:04.926Z,3.70
2017-11-26T06:08:04.894Z,3.67
2017-11-26T06:09:04.886Z,3.68
2017-11-26T06:10:04.839Z,3.71
2017-11-26T06:11:04.798Z,3.63
2017-11-26T06:12:04.768Z,3.68
2017-11-26T06:13:04.743Z,3.63
2017-11-26T06:14:04.705Z,3.71
2017-11-26T06:15:04.686Z,3.60
2017-11-26T06:16:04.656Z,3.71
2017-11-26T06:17:04.629Z,3.68
2017-11-26T06:18:04.587Z,3.74
2017-11-26T06:19:04.552Z,3.68
2017-11-26T06:20:04.524Z,3.74
2017-11-26T06:21:04.489Z,3.74
2017-11-26T06:22:04.473Z,3.70
2017-11-26T06:23:04.738Z,3.67
2017-11-26T06:24:04.397Z,3.74
2017-11-26T06:25:04.369Z,3.75
2017-11-26T06:26:04.340Z,3.72
2017-11-26T06:27:04.313Z,3.68
2017-11-26T06:28:04.281Z,3.75
2017-11-26T06:29:04.250Z,3.72
2017-11-26T06:30:04.209Z,3.74
2017-11-26T06:31:04.182Z,3.80
2017-11-26T06:32:04.146Z,3.77
2017-11-26T06:33:04.117Z,3.78
2017-11-26T06:34:04.099Z,3.74
2017-11-26T06:35:04.310Z,3.81
2017-11-26T06:36:04.070Z,3.78
2017-11-26T06:37:03.996Z,3.77
2017-11-26T06:38:03.972Z,3.75
2017-11-26T06:39:03.941Z,3.75
2017-11-26T06:40:03.909Z,3.78
2017-11-26T06:41:04.171Z,3.77
2017-11-26T06:42:03.837Z,3.75
2017-11-26T06:43:03.809Z,3.81
2017-11-26T06:44:03.782Z,3.78
2017-11-26T06:45:03.744Z,3.78
2017-11-26T06:46:03.718Z,3.86
2017-11-26T06:47:03.938Z,3.80
2017-11-26T06:48:03.650Z,3.88
2017-11-26T06:49:03.619Z,3.90
2017-11-26T06:50:03.601Z,3.78
2017-11-26T06:51:03.563Z,3.84
2017-11-26T06:52:03.536Z,3.88
2017-11-26T06:53:03.753Z,3.81
2017-11-26T06:54:03.473Z,3.89
2017-11-26T06:55:03.442Z,3.86
2017-11-26T06:56:03.403Z,3.82
2017-11-26T06:57:03.378Z,3.80
2017-11-26T06:58:03.344Z,3.81
2017-11-26T06:59:03.567Z,3.78
2017-11-26T07:00:03.284Z,3.84
2017-11-26T07:01:03.253Z,3.78
2017-11-26T07:02:03.215Z,3.88
2017-11-26T07:03:03.192Z,3.78
2017-11-26T07:04:03.156Z,3.84
2017-11-26T07:05:03.427Z,3.86
2017-11-26T07:06:03.107Z,3.90
2017-11-26T07:07:03.061Z,3.95
2017-11-26T07:08:03.031Z,3.99
2017-11-26T07:09:03.017Z,3.89
2017-11-26T07:10:02.974Z,3.81
2017-11-26T07:11:03.199Z,3.89
2017-11-26T07:12:02.920Z,3.81
2017-11-26T07:13:02.884Z,3.80
2017-11-26T07:14:02.853Z,3.93
2017-11-26T07:15:02.831Z,3.81
2017-11-26T07:16:02.790Z,3.78
2017-11-26T07:17:03.065Z,3.82
2017-11-26T07:18:02.723Z,3.81
2017-11-26T07:19:02.693Z,3.82
2017-11-26T07:20:02.667Z,3.89
2017-11-26T07:21:02.627Z,3.90
2017-11-26T07:22:02.598Z,3.84
2017-11-26T07:23:02.927Z,3.90
2017-11-26T07:24:02.536Z,3.92
2017-11-26T07:25:02.505Z,3.93
2017-11-26T07:26:02.478Z,3.99
2017-11-26T07:27:02.458Z,3.98
2017-11-26T07:28:02.421Z,3.90
2017-11-26T07:29:02.633Z,3.88
2017-11-26T07:30:02.364Z,3.84
2017-11-26T07:31:02.319Z,3.88
2017-11-26T07:32:02.290Z,3.86
2017-11-26T07:33:02.273Z,3.96
2017-11-26T07:34:02.231Z,3.99
2017-11-26T07:35:02.496Z,3.90
2017-11-26T07:36:02.173Z,3.95
2017-11-26T07:37:02.145Z,3.92
2017-11-26T07:38:02.112Z,3.99
2017-11-26T07:39:02.077Z,3.95
2017-11-26T07:40:02.049Z,3.96
2017-11-26T07:41:02.011Z,3.98
2017-11-26T07:42:01.988Z,3.98
2017-11-26T07:43:01.952Z,3.93
2017-11-26T07:44:01.931Z,3.89
2017-11-26T07:45:01.900Z,3.99
2017-11-26T07:46:01.857Z,3.96
2017-11-26T07:47:02.146Z,3.90
2017-11-26T07:48:01.795Z,3.88
2017-11-26T07:49:01.765Z,4.04
2017-11-26T07:50:01.739Z,3.98
2017-11-26T07:51:01.702Z,3.98
2017-11-26T07:52:01.693Z,3.99
2017-11-26T07:53:01.893Z,3.99
2017-11-26T07:54:01.617Z,4.06
2017-11-26T07:55:01.586Z,4.02
2017-11-26T07:56:01.550Z,4.08
2017-11-26T07:57:01.529Z,3.99
2017-11-26T07:58:01.492Z,4.10
2017-11-26T07:59:01.455Z,4.00
2017-11-26T08:00:01.436Z,4.02
2017-11-26T08:01:01.397Z,4.02
2017-11-26T08:02:01.378Z,4.06
2017-11-26T08:03:01.348Z,4.02
2017-11-26T08:04:01.310Z,4.08
2017-11-26T08:05:01.279Z,4.08
2017-11-26T08:06:01.245Z,4.10
2017-11-26T08:07:01.219Z,4.08
2017-11-26T08:08:01.193Z,4.20
2017-11-26T08:09:01.154Z,4.02
2017-11-26T08:10:01.116Z,4.04
2017-11-26T08:11:01.087Z,4.08
2017-11-26T08:12:01.062Z,4.13
2017-11-26T08:13:01.038Z,4.18
2017-11-26T08:14:01.002Z,4.17
2017-11-26T08:15:00.971Z,4.21
2017-11-26T08:16:00.936Z,4.20
2017-11-26T08:17:00.909Z,4.24
2017-11-26T08:18:00.879Z,4.25
2017-11-26T08:19:00.843Z,4.20
2017-11-26T08:20:00.817Z,4.28
2017-11-26T08:21:00.796Z,4.25
2017-11-26T08:22:00.770Z,4.18
2017-11-26T08:23:01.074Z,4.21
2017-11-26T08:24:00.692Z,4.25
2017-11-26T08:25:00.660Z,4.24
2017-11-26T08:26:00.628Z,4.21
2017-11-26T08:27:00.610Z,4.32
2017-11-26T08:28:00.573Z,4.36
2017-11-26T08:29:00.793Z,4.38
2017-11-26T08:30:00.505Z,4.31
2017-11-26T08:31:00.480Z,4.24
2017-11-26T08:32:00.446Z,4.29
2017-11-26T08:33:00.418Z,4.35
2017-11-26T08:34:00.388Z,4.31
2017-11-26T08:35:00.358Z,4.36
2017-11-26T08:36:00.326Z,4.42
2017-11-26T08:37:00.300Z,4.36
2017-11-26T08:38:00.269Z,4.39
2017-11-26T08:39:00.241Z,4.31
2017-11-26T08:40:00.209Z,4.26
2017-11-26T08:41:00.182Z,4.36
2017-11-26T08:42:00.141Z,4.32
2017-11-26T08:43:00.119Z,4.46
2017-11-26T08:44:00.089Z,4.43
2017-11-26T08:45:00.063Z,4.42
2017-11-26T08:46:00.026Z,4.29
2017-11-26T08:47:00.247Z,4.32
2017-11-26T08:47:59.975Z,4.44
2017-11-26T08:48:59.929Z,4.47
2017-11-26T08:49:59.898Z,4.44
2017-11-26T08:50:59.869Z,4.38
2017-11-26T08:51:59.848Z,4.42
2017-11-26T08:53:00.071Z,4.46
2017-11-26T08:53:59.789Z,4.43
2017-11-26T08:54:59.757Z,4.44
2017-11-26T08:55:59.724Z,4.49
2017-11-26T08:56:59.695Z,4.47
2017-11-26T08:57:59.668Z,4.43
2017-11-26T08:58:59.638Z,4.43
2017-11-26T08:59:59.602Z,4.43
2017-11-26T09:00:59.574Z,4.49
2017-11-26T09:01:59.551Z,4.46
2017-11-26T09:02:59.505Z,4.49
2017-11-26T09:03:59.480Z,4.46
2017-11-26T09:04:59.458Z,4.57
2017-11-26T09:05:59.420Z,4.51
2017-11-26T09:06:59.384Z,4.56
2017-11-26T09:07:59.355Z,4.54
2017-11-26T09:08:59.345Z,4.54
2017-11-26T09:09:59.302Z,4.54
2017-11-26T09:10:59.270Z,4.44
2017-11-26T09:11:59.238Z,4.56
2017-11-26T09:12:59.204Z,4.51
2017-11-26T09:13:59.173Z,4.61
2017-11-26T09:14:59.149Z,4.53
2017-11-26T09:15:59.122Z,4.61
2017-11-26T09:16:59.341Z,4.62
2017-11-26T09:17:59.065Z,4.69
2017-11-26T09:18:59.033Z,4.67
2017-11-26T09:19:59.006Z,4.64
2017-11-26T09:20:58.970Z,4.65
2017-11-26T09:21:58.935Z,4.68
2017-11-26T09:22:59.166Z,4.68
2017-11-26T09:23:58.874Z,4.57
2017-11-26T09:24:58.857Z,4.62
2017-11-26T09:25:58.813Z,4.71
2017-11-26T09:26:58.798Z,4.69
2017-11-26T09:27:58.761Z,4.62
2017-11-26T09:28:58.735Z,4.65
2017-11-26T09:29:58.701Z,4.62
2017-11-26T09:30:58.669Z,4.65
2017-11-26T09:31:58.638Z,4.65
2017-11-26T09:32:58.604Z,4.71
2017-11-26T09:33:58.578Z,4.68
2017-11-26T09:34:58.546Z,4.51
2017-11-26T09:35:58.519Z,4.54
2017-11-26T09:36:58.494Z,4.53
2017-11-26T09:37:58.452Z,4.54
2017-11-26T09:38:58.430Z,4.54
2017-11-26T09:39:58.407Z,4.59
2017-11-26T09:40:58.720Z,4.57
2017-11-26T09:41:58.337Z,4.62
2017-11-26T09:42:58.312Z,4.59
2017-11-26T09:43:58.287Z,4.65
2017-11-26T09:44:58.247Z,4.64
2017-11-26T09:45:58.216Z,4.69
2017-11-26T09:46:58.191Z,4.64
2017-11-26T09:47:58.156Z,4.71
2017-11-26T09:48:58.124Z,4.67
2017-11-26T09:49:58.103Z,4.67
2017-11-26T09:50:58.075Z,4.71
2017-11-26T09:51:58.037Z,4.69
2017-11-26T09:52:58.355Z,4.72
2017-11-26T09:53:57.985Z,4.79
2017-11-26T09:54:57.950Z,4.77
2017-11-26T09:55:57.926Z,4.74
2017-11-26T09:56:57.892Z,4.77
2017-11-26T09:57:57.863Z,4.75
2017-11-26T09:58:58.586Z,4.79
2017-11-26T09:59:57.804Z,4.77
2017-11-26T10:00:57.771Z,4.77
2017-11-26T10:01:57.735Z,4.86
2017-11-26T10:02:57.706Z,4.77
2017-11-26T10:03:57.683Z,4.84
2017-11-26T10:04:57.647Z,4.94
2017-11-26T10:05:57.614Z,4.86
2017-11-26T10:06:57.592Z,4.91
2017-11-26T10:07:57.562Z,4.99
2017-11-26T10:08:57.528Z,4.88
2017-11-26T10:09:57.505Z,5.02
2017-11-26T10:10:57.474Z,4.96
2017-11-26T10:11:57.445Z,4.90
2017-11-26T10:12:57.407Z,5.02
2017-11-26T10:13:57.377Z,5.06
2017-11-26T10:14:57.366Z,5.06
2017-11-26T10:15:57.328Z,5.04
2017-11-26T10:16:57.298Z,5.04
2017-11-26T10:17:57.268Z,5.06
2017-11-26T10:18:57.240Z,5.09
2017-11-26T10:19:57.212Z,4.96
2017-11-26T10:20:57.171Z,5.08
2017-11-26T10:21:57.156Z,5.06
2017-11-26T10:22:57.374Z,5.06
2017-11-26T10:23:57.100Z,5.12
2017-11-26T10:24:57.063Z,5.11
2017-11-26T10:25:57.027Z,5.08
2017-11-26T10:26:56.990Z,5.01
2017-11-26T10:27:56.964Z,5.11
2017-11-26T10:28:56.935Z,5.02
2017-11-26T10:29:56.913Z,5.06
2017-11-26T10:30:56.882Z,5.09
2017-11-26T10:31:56.849Z,5.12
2017-11-26T10:32:56.816Z,5.11
2017-11-26T10:33:56.787Z,5.17
2017-11-26T10:34:56.764Z,5.09
2017-11-26T10:35:56.733Z,5.11
2017-11-26T10:36:56.708Z,5.14
2017-11-26T10:37:56.673Z,5.08
2017-11-26T10:38:56.644Z,5.09
2017-11-26T10:39:56.622Z,5.09
2017-11-26T10:40:56.583Z,5.17
2017-11-26T10:41:56.560Z,5.05
2017-11-26T10:42:56.524Z,5.09
2017-11-26T10:43:56.496Z,5.12
2017-11-26T10:44:56.469Z,5.12
2017-11-26T10:45:56.436Z,5.08
2017-11-26T10:46:56.406Z,5.09
2017-11-26T10:47:56.376Z,5.01
2017-11-26T10:48:56.348Z,5.12
2017-11-26T10:49:56.313Z,4.97
2017-11-26T10:50:56.293Z,5.08
2017-11-26T10:51:56.257Z,5.12
2017-11-26T10:52:56.242Z,5.14
2017-11-26T10:53:56.200Z,5.20
2017-11-26T10:54:56.169Z,5.14
2017-11-26T10:55:56.138Z,5.15
2017-11-26T10:56:56.107Z,5.17
2017-11-26T10:57:56.078Z,5.06
2017-11-26T10:58:56.306Z,5.12
2017-11-26T10:59:56.016Z,5.12
2017-11-26T11:00:55.993Z,5.08
2017-11-26T11:01:55.962Z,5.15
2017-11-26T11:02:55.940Z,5.09
2017-11-26T11:03:55.897Z,5.20
2017-11-26T11:04:55.879Z,5.17
2017-11-26T11:05:55.847Z,5.20
2017-11-26T11:06:55.806Z,5.15
2017-11-26T11:07:55.780Z,5.09
2017-11-26T11:08:55.755Z,5.14
2017-11-26T11:09:55.726Z,5.22
2017-11-26T11:10:55.691Z,5.19
2017-11-26T11:11:55.667Z,5.22
2017-11-26T11:12:55.646Z,5.12
2017-11-26T11:13:55.611Z,5.14
2017-11-26T11:14:55.571Z,5.14
2017-11-26T11:15:55.549Z,5.19
2017-11-26T11:16:55.514Z,5.20
2017-11-26T11:17:55.495Z,5.23
2017-11-26T11:18:55.455Z,5.19
2017-11-26T11:19:55.440Z,5.22
2017-11-26T11:20:55.402Z,5.22
2017-11-26T11:21:55.372Z,5.35
2017-11-26T11:22:55.342Z,5.24
2017-11-26T11:23:55.316Z,5.26
2017-11-26T11:24:55.277Z,5.27
2017-11-26T11:25:55.253Z,5.26
2017-11-26T11:26:55.229Z,5.24
2017-11-26T11:27:55.188Z,5.32
2017-11-26T11:28:55.160Z,5.24
2017-11-26T11:29:55.137Z,5.33
2017-11-26T11:30:55.104Z,5.37
2017-11-26T11:31:55.076Z,5.22
2017-11-26T11:32:55.050Z,5.29
2017-11-26T11:33:55.016Z,5.37
2017-11-26T11:34:54.986Z,5.24
2017-11-26T11:35:54.953Z,5.26
2017-11-26T11:36:54.929Z,5.29
2017-11-26T11:37:54.892Z,5.37
2017-11-26T11:38:54.866Z,5.30
2017-11-26T11:39:54.840Z,5.32
2017-11-26T11:40:54.808Z,5.40
2017-11-26T11:41:54.784Z,5.23
2017-11-26T11:42:54.752Z,5.33
2017-11-26T11:43:54.722Z,5.40
2017-11-26T11:44:54.683Z,5.37
2017-11-26T11:45:54.665Z,5.45
2017-11-26T11:46:54.924Z,5.42
2017-11-26T11:47:54.602Z,5.41
2017-11-26T11:48:54.572Z,5.48
2017-11-26T11:49:54.536Z,5.33
2017-11-26T11:50:54.509Z,5.48
2017-11-26T11:51:54.484Z,5.33
2017-11-26T11:52:54.457Z,5.42
2017-11-26T11:53:54.422Z,5.37
2017-11-26T11:54:54.418Z,5.41
2017-11-26T11:55:54.363Z,5.42
2017-11-26T11:56:54.343Z,5.45
2017-11-26T11:57:54.305Z,5.40
2017-11-26T11:58:54.271Z,5.40
2017-11-26T11:59:54.248Z,5.32
2017-11-26T12:00:54.220Z,5.35
2017-11-26T12:01:54.189Z,5.40
2017-11-26T12:02:54.159Z,5.42
2017-11-26T12:03:54.380Z,5.35
2017-11-26T12:04:54.101Z,5.33
2017-11-26T12:05:54.064Z,5.37
2017-11-26T12:06:54.041Z,5.33
2017-11-26T12:07:54.005Z,5.37
2017-11-26T12:08:53.976Z,5.42
2017-11-26T12:09:53.952Z,5.49
2017-11-26T12:10:53.916Z,5.42
2017-11-26T12:11:53.890Z,5.33
2017-11-26T12:12:53.857Z,5.45
2017-11-26T12:13:53.837Z,5.47
2017-11-26T12:14:53.799Z,5.51
2017-11-26T12:15:53.784Z,5.51
2017-11-26T12:16:53.746Z,5.45
2017-11-26T12:17:53.710Z,5.52
2017-11-26T12:18:53.685Z,5.56
2017-11-26T12:19:53.658Z,5.62
2017-11-26T12:20:53.622Z,5.59
2017-11-26T12:21:53.608Z,5.51
2017-11-26T12:22:53.569Z,5.55
2017-11-26T12:23:53.537Z,5.59
2017-11-26T12:24:53.523Z,5.55
2017-11-26T12:25:53.471Z,5.48
2017-11-26T12:26:53.442Z,5.58
2017-11-26T12:27:53.412Z,5.59
2017-11-26T12:28:53.392Z,5.55
2017-11-26T12:29:53.358Z,5.56
2017-11-26T12:30:53.325Z,5.63
2017-11-26T12:31:53.303Z,5.58
2017-11-26T12:32:53.269Z,5.56
2017-11-26T12:33:53.244Z,5.55
2017-11-26T12:34:53.217Z,5.52
2017-11-26T12:35:53.178Z,5.59
2017-11-26T12:36:53.147Z,5.52
2017-11-26T12:37:53.123Z,5.49
2017-11-26T12:38:53.092Z,5.56
2017-11-26T12:39:53.075Z,5.62
2017-11-26T12:40:53.031Z,5.58
2017-11-26T12:41:53.002Z,5.59
2017-11-26T12:42:52.979Z,5.62
2017-11-26T12:43:52.944Z,5.65
2017-11-26T12:44:52.907Z,5.63
2017-11-26T12:45:52.880Z,5.70
2017-11-26T12:46:52.858Z,5.67
2017-11-26T12:47:52.830Z,5.69
2017-11-26T12:48:52.800Z,5.60
2017-11-26T12:49:52.773Z,5.65
2017-11-26T12:50:52.739Z,5.75
2017-11-26T12:51:52.712Z,5.73
2017-11-26T12:52:52.678Z,5.73
2017-11-26T12:53:52.645Z,5.67
2017-11-26T12:54:52.610Z,5.67
2017-11-26T12:55:52.583Z,5.77
2017-11-26T12:56:52.557Z,5.67
2017-11-26T12:57:52.522Z,5.74
2017-11-26T12:58:52.505Z,5.70
2017-11-26T12:59:52.464Z,5.67
2017-11-26T13:00:52.440Z,5.62
2017-11-26T13:01:52.414Z,5.78
2017-11-26T13:02:52.380Z,5.65
2017-11-26T13:03:52.601Z,5.78
2017-11-26T13:04:52.325Z,5.70
2017-11-26T13:05:52.284Z,5.70
2017-11-26T13:06:52.259Z,5.73
2017-11-26T13:07:52.257Z,5.70
2017-11-26T13:08:52.203Z,5.69
2017-11-26T13:09:52.426Z,5.73
2017-11-26T13:10:52.142Z,5.70
2017-11-26T13:11:52.106Z,5.73
2017-11-26T13:12:52.086Z,5.75
2017-11-26T13:13:52.071Z,5.65
2017-11-26T13:14:52.022Z,5.67
2017-11-26T13:15:52.238Z,5.78
2017-11-26T13:16:51.972Z,5.75
2017-11-26T13:17:51.935Z,5.80